sensor_id;sensor_type;location;lat;lon;timestamp;P1;durP1;ratioP1;P2;durP2;ratioP2
55663;SDS011;41540;57.880;12.164;2022-08-01T00:06:25;2.45;;;2.25;;
55663;SDS011;41540;57.880;12.164;2022-08-01T00:16:26;3.30;;;2.35;;
55663;SDS011;41540;57.880;12.164;2022-08-01T00:26:29;2.30;;;2.10;;
55663;SDS011;41540;57.880;12.164;2022-08-01T00:36:30;3.03;;;2.72;;
55663;SDS011;41540;57.880;12.164;2022-08-01T00:46:30;2.85;;;2.13;;
55663;SDS011;41540;57.880;12.164;2022-08-01T00:56:31;3.15;;;2.85;;
55663;SDS011;41540;57.880;12.164;2022-08-01T01:16:41;4.47;;;3.13;;
55663;SDS011;41540;57.880;12.164;2022-08-01T01:36:54;4.82;;;4.43;;
55663;SDS011;41540;57.880;12.164;2022-08-01T01:46:56;4.57;;;4.17;;
55663;SDS011;41540;57.880;12.164;2022-08-01T01:56:59;4.97;;;4.50;;
55663;SDS011;41540;57.880;12.164;2022-08-01T02:07:01;5.07;;;4.65;;
55663;SDS011;41540;57.880;12.164;2022-08-01T02:17:03;5.97;;;5.25;;
55663;SDS011;41540;57.880;12.164;2022-08-01T02:27:14;10.30;;;6.40;;
55663;SDS011;41540;57.880;12.164;2022-08-01T02:37:17;9.73;;;7.17;;
55663;SDS011;41540;57.880;12.164;2022-08-01T02:47:20;7.10;;;6.50;;
55663;SDS011;41540;57.880;12.164;2022-08-01T02:57:23;8.50;;;7.70;;
55663;SDS011;41540;57.880;12.164;2022-08-01T03:07:26;8.70;;;7.95;;
55663;SDS011;41540;57.880;12.164;2022-08-01T03:17:29;7.32;;;6.72;;
55663;SDS011;41540;57.880;12.164;2022-08-01T03:27:31;11.93;;;7.15;;
55663;SDS011;41540;57.880;12.164;2022-08-01T03:37:34;8.93;;;6.93;;
55663;SDS011;41540;57.880;12.164;2022-08-01T03:47:35;8.80;;;7.60;;
55663;SDS011;41540;57.880;12.164;2022-08-01T03:57:36;7.75;;;7.05;;
55663;SDS011;41540;57.880;12.164;2022-08-01T04:07:37;7.30;;;6.45;;
55663;SDS011;41540;57.880;12.164;2022-08-01T04:17:39;7.38;;;6.63;;
55663;SDS011;41540;57.880;12.164;2022-08-01T04:27:40;9.77;;;6.75;;
55663;SDS011;41540;57.880;12.164;2022-08-01T04:37:45;6.15;;;5.55;;
55663;SDS011;41540;57.880;12.164;2022-08-01T04:47:48;10.90;;;4.53;;
55663;SDS011;41540;57.880;12.164;2022-08-01T04:57:49;5.57;;;3.30;;
55663;SDS011;41540;57.880;12.164;2022-08-01T05:07:50;3.65;;;3.35;;
55663;SDS011;41540;57.880;12.164;2022-08-01T05:17:50;8.68;;;3.25;;
55663;SDS011;41540;57.880;12.164;2022-08-01T05:27:51;2.70;;;2.47;;
55663;SDS011;41540;57.880;12.164;2022-08-01T05:37:51;2.88;;;2.33;;
55663;SDS011;41540;57.880;12.164;2022-08-01T05:47:52;4.72;;;3.47;;
55663;SDS011;41540;57.880;12.164;2022-08-01T05:57:52;4.22;;;2.55;;
55663;SDS011;41540;57.880;12.164;2022-08-01T06:07:52;6.22;;;2.97;;
55663;SDS011;41540;57.880;12.164;2022-08-01T06:17:53;2.97;;;2.13;;
55663;SDS011;41540;57.880;12.164;2022-08-01T06:27:54;3.25;;;1.80;;
55663;SDS011;41540;57.880;12.164;2022-08-01T06:37:54;1.85;;;1.70;;
55663;SDS011;41540;57.880;12.164;2022-08-01T06:47:55;3.03;;;1.40;;
55663;SDS011;41540;57.880;12.164;2022-08-01T06:57:58;7.55;;;1.90;;
55663;SDS011;41540;57.880;12.164;2022-08-01T07:07:58;1.55;;;1.40;;
55663;SDS011;41540;57.880;12.164;2022-08-01T07:17:59;3.90;;;1.60;;
55663;SDS011;41540;57.880;12.164;2022-08-01T07:28:03;2.35;;;1.58;;
55663;SDS011;41540;57.880;12.164;2022-08-01T07:38:04;6.33;;;2.57;;
55663;SDS011;41540;57.880;12.164;2022-08-01T07:48:05;3.53;;;1.75;;
55663;SDS011;41540;57.880;12.164;2022-08-01T07:58:06;2.90;;;1.92;;
55663;SDS011;41540;57.880;12.164;2022-08-01T08:08:08;3.42;;;1.88;;
55663;SDS011;41540;57.880;12.164;2022-08-01T08:18:10;5.65;;;2.47;;
55663;SDS011;41540;57.880;12.164;2022-08-01T08:28:10;3.40;;;1.58;;
55663;SDS011;41540;57.880;12.164;2022-08-01T08:38:10;5.83;;;1.90;;
55663;SDS011;41540;57.880;12.164;2022-08-01T08:48:12;4.10;;;2.30;;
55663;SDS011;41540;57.880;12.164;2022-08-01T08:58:13;6.50;;;2.53;;
55663;SDS011;41540;57.880;12.164;2022-08-01T09:08:17;4.45;;;2.17;;
55663;SDS011;41540;57.880;12.164;2022-08-01T09:28:34;5.85;;;1.85;;
55663;SDS011;41540;57.880;12.164;2022-08-01T09:38:37;13.20;;;2.20;;
55663;SDS011;41540;57.880;12.164;2022-08-01T09:48:37;6.68;;;1.83;;
55663;SDS011;41540;57.880;12.164;2022-08-01T09:58:49;5.35;;;2.10;;
55663;SDS011;41540;57.880;12.164;2022-08-01T10:08:54;11.82;;;3.00;;
55663;SDS011;41540;57.880;12.164;2022-08-01T10:28:56;3.42;;;1.63;;
55663;SDS011;41540;57.880;12.164;2022-08-01T10:38:59;5.70;;;1.90;;
55663;SDS011;41540;57.880;12.164;2022-08-01T10:49:01;3.58;;;1.75;;
55663;SDS011;41540;57.880;12.164;2022-08-01T10:59:04;4.70;;;1.92;;
55663;SDS011;41540;57.880;12.164;2022-08-01T11:09:15;4.90;;;2.50;;
55663;SDS011;41540;57.880;12.164;2022-08-01T11:19:23;8.05;;;2.45;;
55663;SDS011;41540;57.880;12.164;2022-08-01T11:29:24;3.25;;;1.40;;
55663;SDS011;41540;57.880;12.164;2022-08-01T11:39:24;3.45;;;1.55;;
55663;SDS011;41540;57.880;12.164;2022-08-01T11:59:49;8.15;;;1.55;;
55663;SDS011;41540;57.880;12.164;2022-08-01T12:20:08;3.08;;;1.38;;
55663;SDS011;41540;57.880;12.164;2022-08-01T12:30:11;5.47;;;1.75;;
55663;SDS011;41540;57.880;12.164;2022-08-01T12:40:17;4.43;;;1.90;;
55663;SDS011;41540;57.880;12.164;2022-08-01T12:50:21;4.20;;;1.88;;
55663;SDS011;41540;57.880;12.164;2022-08-01T13:00:28;5.00;;;1.52;;
55663;SDS011;41540;57.880;12.164;2022-08-01T13:10:29;5.90;;;2.20;;
55663;SDS011;41540;57.880;12.164;2022-08-01T13:20:31;5.72;;;1.83;;
55663;SDS011;41540;57.880;12.164;2022-08-01T13:30:33;11.13;;;1.90;;
55663;SDS011;41540;57.880;12.164;2022-08-01T13:40:33;3.93;;;1.80;;
55663;SDS011;41540;57.880;12.164;2022-08-01T13:50:34;3.10;;;1.80;;
55663;SDS011;41540;57.880;12.164;2022-08-01T14:00:34;6.68;;;1.67;;
55663;SDS011;41540;57.880;12.164;2022-08-01T14:10:35;1.43;;;1.20;;
55663;SDS011;41540;57.880;12.164;2022-08-01T14:20:38;2.92;;;1.50;;
55663;SDS011;41540;57.880;12.164;2022-08-01T14:30:40;7.00;;;2.10;;
55663;SDS011;41540;57.880;12.164;2022-08-01T14:40:42;2.83;;;1.50;;
55663;SDS011;41540;57.880;12.164;2022-08-01T14:50:43;12.03;;;2.13;;
55663;SDS011;41540;57.880;12.164;2022-08-01T15:00:43;1.47;;;1.37;;
55663;SDS011;41540;57.880;12.164;2022-08-01T15:10:44;3.00;;;1.27;;
55663;SDS011;41540;57.880;12.164;2022-08-01T15:20:44;2.60;;;1.70;;
55663;SDS011;41540;57.880;12.164;2022-08-01T15:40:45;1.70;;;1.20;;
55663;SDS011;41540;57.880;12.164;2022-08-01T15:50:47;2.63;;;1.10;;
55663;SDS011;41540;57.880;12.164;2022-08-01T16:00:47;4.20;;;1.60;;
55663;SDS011;41540;57.880;12.164;2022-08-01T16:10:48;6.95;;;1.45;;
55663;SDS011;41540;57.880;12.164;2022-08-01T16:20:48;2.65;;;1.65;;
55663;SDS011;41540;57.880;12.164;2022-08-01T16:30:49;3.15;;;1.52;;
55663;SDS011;41540;57.880;12.164;2022-08-01T16:40:49;3.40;;;1.70;;
55663;SDS011;41540;57.880;12.164;2022-08-01T16:50:50;1.40;;;1.30;;
55663;SDS011;41540;57.880;12.164;2022-08-01T17:00:51;2.07;;;1.50;;
55663;SDS011;41540;57.880;12.164;2022-08-01T17:10:52;1.70;;;1.27;;
55663;SDS011;41540;57.880;12.164;2022-08-01T17:20:52;1.60;;;1.25;;
55663;SDS011;41540;57.880;12.164;2022-08-01T17:30:53;5.10;;;1.70;;
55663;SDS011;41540;57.880;12.164;2022-08-01T17:40:53;3.13;;;1.42;;
55663;SDS011;41540;57.880;12.164;2022-08-01T17:50:54;5.68;;;2.53;;
55663;SDS011;41540;57.880;12.164;2022-08-01T18:00:54;11.18;;;2.10;;
55663;SDS011;41540;57.880;12.164;2022-08-01T18:10:55;7.18;;;2.67;;
55663;SDS011;41540;57.880;12.164;2022-08-01T18:20:56;9.25;;;2.85;;
55663;SDS011;41540;57.880;12.164;2022-08-01T18:30:56;12.32;;;2.22;;
55663;SDS011;41540;57.880;12.164;2022-08-01T18:40:57;14.02;;;4.40;;
55663;SDS011;41540;57.880;12.164;2022-08-01T18:50:58;9.97;;;3.17;;
55663;SDS011;41540;57.880;12.164;2022-08-01T19:00:59;11.27;;;2.65;;
55663;SDS011;41540;57.880;12.164;2022-08-01T19:11:00;10.00;;;3.05;;
55663;SDS011;41540;57.880;12.164;2022-08-01T19:21:00;19.77;;;5.25;;
55663;SDS011;41540;57.880;12.164;2022-08-01T19:31:05;16.92;;;4.90;;
55663;SDS011;41540;57.880;12.164;2022-08-01T19:41:09;16.80;;;3.83;;
55663;SDS011;41540;57.880;12.164;2022-08-01T19:51:13;18.85;;;3.30;;
55663;SDS011;41540;57.880;12.164;2022-08-01T20:01:15;9.97;;;3.60;;
55663;SDS011;41540;57.880;12.164;2022-08-01T20:11:16;17.52;;;4.50;;
55663;SDS011;41540;57.880;12.164;2022-08-01T20:21:17;9.70;;;3.72;;
55663;SDS011;41540;57.880;12.164;2022-08-01T20:31:19;13.05;;;4.82;;
55663;SDS011;41540;57.880;12.164;2022-08-01T20:41:21;15.50;;;4.35;;
55663;SDS011;41540;57.880;12.164;2022-08-01T20:51:26;13.27;;;4.20;;
55663;SDS011;41540;57.880;12.164;2022-08-01T21:01:28;25.33;;;4.57;;
55663;SDS011;41540;57.880;12.164;2022-08-01T21:11:48;14.25;;;3.78;;
55663;SDS011;41540;57.880;12.164;2022-08-01T21:22:02;17.20;;;4.30;;
55663;SDS011;41540;57.880;12.164;2022-08-01T21:32:11;20.05;;;4.45;;
55663;SDS011;41540;57.880;12.164;2022-08-01T21:42:15;21.52;;;5.38;;
55663;SDS011;41540;57.880;12.164;2022-08-01T21:52:16;17.83;;;3.85;;
55663;SDS011;41540;57.880;12.164;2022-08-01T22:02:26;16.23;;;4.53;;
55663;SDS011;41540;57.880;12.164;2022-08-01T22:12:30;13.68;;;4.10;;
55663;SDS011;41540;57.880;12.164;2022-08-01T22:22:33;17.80;;;3.60;;
55663;SDS011;41540;57.880;12.164;2022-08-01T22:32:35;15.52;;;3.38;;
55663;SDS011;41540;57.880;12.164;2022-08-01T22:42:54;20.23;;;4.97;;
55663;SDS011;41540;57.880;12.164;2022-08-01T22:53:01;18.50;;;4.22;;
55663;SDS011;41540;57.880;12.164;2022-08-01T23:03:12;15.77;;;4.07;;
55663;SDS011;41540;57.880;12.164;2022-08-01T23:13:17;23.08;;;5.35;;
55663;SDS011;41540;57.880;12.164;2022-08-01T23:23:18;20.13;;;5.28;;
55663;SDS011;41540;57.880;12.164;2022-08-01T23:33:19;19.13;;;4.57;;
55663;SDS011;41540;57.880;12.164;2022-08-01T23:43:19;18.20;;;4.78;;
55663;SDS011;41540;57.880;12.164;2022-08-01T23:53:20;14.23;;;4.68;;
